sensor_id;sensor_type;location;lat;lon;timestamp;P1;durP1;ratioP1;P2;durP2;ratioP2
84482;SDS011;74703;51.284;22.590;2024-02-28T00:02:42;36.00;;;20.50;;
84482;SDS011;74703;51.284;22.590;2024-02-28T00:07:43;33.05;;;20.33;;
84482;SDS011;74703;51.284;22.590;2024-02-28T00:12:44;38.80;;;19.15;;
84482;SDS011;74703;51.284;22.590;2024-02-28T00:17:45;39.17;;;20.08;;
84482;SDS011;74703;51.284;22.590;2024-02-28T00:22:45;36.25;;;18.67;;
84482;SDS011;74703;51.284;22.590;2024-02-28T00:27:46;35.20;;;20.73;;
84482;SDS011;74703;51.284;22.590;2024-02-28T00:32:46;37.60;;;20.50;;
84482;SDS011;74703;51.284;22.590;2024-02-28T00:37:47;35.95;;;20.58;;
84482;SDS011;74703;51.284;22.590;2024-02-28T00:42:48;40.05;;;23.08;;
84482;SDS011;74703;51.284;22.590;2024-02-28T00:47:48;32.88;;;17.90;;
84482;SDS011;74703;51.284;22.590;2024-02-28T00:52:49;31.45;;;17.92;;
84482;SDS011;74703;51.284;22.590;2024-02-28T00:57:52;31.13;;;18.80;;
84482;SDS011;74703;51.284;22.590;2024-02-28T01:02:53;29.05;;;16.67;;
84482;SDS011;74703;51.284;22.590;2024-02-28T01:07:54;35.45;;;18.05;;
84482;SDS011;74703;51.284;22.590;2024-02-28T01:12:54;31.85;;;17.52;;
84482;SDS011;74703;51.284;22.590;2024-02-28T01:17:55;28.15;;;17.55;;
84482;SDS011;74703;51.284;22.590;2024-02-28T01:22:55;37.05;;;19.83;;
84482;SDS011;74703;51.284;22.590;2024-02-28T01:27:56;30.30;;;17.08;;
84482;SDS011;74703;51.284;22.590;2024-02-28T01:32:59;29.90;;;15.57;;
84482;SDS011;74703;51.284;22.590;2024-02-28T01:38:00;31.05;;;17.58;;
84482;SDS011;74703;51.284;22.590;2024-02-28T01:43:06;28.90;;;17.33;;
84482;SDS011;74703;51.284;22.590;2024-02-28T01:48:09;41.80;;;21.38;;
84482;SDS011;74703;51.284;22.590;2024-02-28T01:53:11;29.73;;;18.00;;
84482;SDS011;74703;51.284;22.590;2024-02-28T01:58:13;31.60;;;16.23;;
84482;SDS011;74703;51.284;22.590;2024-02-28T02:03:14;26.67;;;17.48;;
84482;SDS011;74703;51.284;22.590;2024-02-28T02:08:15;27.27;;;15.35;;
84482;SDS011;74703;51.284;22.590;2024-02-28T02:13:15;33.33;;;16.73;;
84482;SDS011;74703;51.284;22.590;2024-02-28T02:18:16;31.50;;;14.60;;
84482;SDS011;74703;51.284;22.590;2024-02-28T02:23:16;26.52;;;15.18;;
84482;SDS011;74703;51.284;22.590;2024-02-28T02:28:17;29.17;;;16.38;;
84482;SDS011;74703;51.284;22.590;2024-02-28T02:33:17;34.05;;;17.52;;
84482;SDS011;74703;51.284;22.590;2024-02-28T02:38:18;23.15;;;14.95;;
84482;SDS011;74703;51.284;22.590;2024-02-28T02:43:19;34.70;;;15.60;;
84482;SDS011;74703;51.284;22.590;2024-02-28T02:48:19;28.05;;;14.68;;
84482;SDS011;74703;51.284;22.590;2024-02-28T02:53:20;27.67;;;15.13;;
84482;SDS011;74703;51.284;22.590;2024-02-28T02:58:21;27.58;;;15.88;;
84482;SDS011;74703;51.284;22.590;2024-02-28T03:03:21;22.48;;;13.95;;
84482;SDS011;74703;51.284;22.590;2024-02-28T03:08:22;22.63;;;14.80;;
84482;SDS011;74703;51.284;22.590;2024-02-28T03:13:22;21.38;;;14.13;;
84482;SDS011;74703;51.284;22.590;2024-02-28T03:18:23;25.17;;;15.98;;
84482;SDS011;74703;51.284;22.590;2024-02-28T03:23:23;28.08;;;16.40;;
84482;SDS011;74703;51.284;22.590;2024-02-28T03:28:24;29.80;;;17.58;;
84482;SDS011;74703;51.284;22.590;2024-02-28T03:33:24;31.00;;;14.80;;
84482;SDS011;74703;51.284;22.590;2024-02-28T03:38:25;32.75;;;17.15;;
84482;SDS011;74703;51.284;22.590;2024-02-28T03:43:26;28.88;;;16.98;;
84482;SDS011;74703;51.284;22.590;2024-02-28T03:48:26;25.52;;;15.70;;
84482;SDS011;74703;51.284;22.590;2024-02-28T03:53:27;24.75;;;13.85;;
84482;SDS011;74703;51.284;22.590;2024-02-28T03:58:28;30.45;;;17.67;;
84482;SDS011;74703;51.284;22.590;2024-02-28T04:03:28;26.80;;;15.00;;
84482;SDS011;74703;51.284;22.590;2024-02-28T04:08:29;30.00;;;16.90;;
84482;SDS011;74703;51.284;22.590;2024-02-28T04:13:30;29.15;;;18.55;;
84482;SDS011;74703;51.284;22.590;2024-02-28T04:18:30;38.65;;;20.92;;
84482;SDS011;74703;51.284;22.590;2024-02-28T04:23:31;27.13;;;15.65;;
84482;SDS011;74703;51.284;22.590;2024-02-28T04:28:31;32.88;;;17.52;;
84482;SDS011;74703;51.284;22.590;2024-02-28T04:33:32;30.00;;;18.35;;
84482;SDS011;74703;51.284;22.590;2024-02-28T04:38:32;30.73;;;17.38;;
84482;SDS011;74703;51.284;22.590;2024-02-28T04:43:33;32.03;;;17.17;;
84482;SDS011;74703;51.284;22.590;2024-02-28T04:48:33;30.13;;;15.90;;
84482;SDS011;74703;51.284;22.590;2024-02-28T04:53:34;29.10;;;16.63;;
84482;SDS011;74703;51.284;22.590;2024-02-28T04:58:35;26.08;;;13.60;;
84482;SDS011;74703;51.284;22.590;2024-02-28T05:03:43;23.10;;;14.13;;
84482;SDS011;74703;51.284;22.590;2024-02-28T05:08:49;31.25;;;16.17;;
84482;SDS011;74703;51.284;22.590;2024-02-28T05:13:51;28.40;;;15.70;;
84482;SDS011;74703;51.284;22.590;2024-02-28T05:18:52;23.50;;;14.27;;
84482;SDS011;74703;51.284;22.590;2024-02-28T05:23:52;28.80;;;16.33;;
84482;SDS011;74703;51.284;22.590;2024-02-28T05:28:53;27.08;;;15.70;;
84482;SDS011;74703;51.284;22.590;2024-02-28T05:33:54;27.48;;;14.70;;
84482;SDS011;74703;51.284;22.590;2024-02-28T05:38:59;28.00;;;15.88;;
84482;SDS011;74703;51.284;22.590;2024-02-28T05:44:01;34.90;;;16.20;;
84482;SDS011;74703;51.284;22.590;2024-02-28T05:49:02;26.67;;;14.48;;
84482;SDS011;74703;51.284;22.590;2024-02-28T05:54:04;29.92;;;15.38;;
84482;SDS011;74703;51.284;22.590;2024-02-28T05:59:04;34.85;;;18.73;;
84482;SDS011;74703;51.284;22.590;2024-02-28T06:04:10;35.22;;;19.55;;
84482;SDS011;74703;51.284;22.590;2024-02-28T06:09:11;31.20;;;16.40;;
84482;SDS011;74703;51.284;22.590;2024-02-28T06:14:11;30.58;;;17.08;;
84482;SDS011;74703;51.284;22.590;2024-02-28T06:19:13;33.78;;;19.02;;
84482;SDS011;74703;51.284;22.590;2024-02-28T06:24:14;28.58;;;18.17;;
84482;SDS011;74703;51.284;22.590;2024-02-28T06:29:14;31.15;;;16.77;;
84482;SDS011;74703;51.284;22.590;2024-02-28T06:34:15;26.05;;;16.17;;
84482;SDS011;74703;51.284;22.590;2024-02-28T06:39:16;29.73;;;18.02;;
84482;SDS011;74703;51.284;22.590;2024-02-28T06:44:19;31.25;;;17.98;;
84482;SDS011;74703;51.284;22.590;2024-02-28T06:49:20;30.58;;;16.77;;
84482;SDS011;74703;51.284;22.590;2024-02-28T06:54:21;36.15;;;18.77;;
84482;SDS011;74703;51.284;22.590;2024-02-28T06:59:21;38.28;;;17.77;;
84482;SDS011;74703;51.284;22.590;2024-02-28T07:04:22;28.90;;;17.05;;
84482;SDS011;74703;51.284;22.590;2024-02-28T07:09:23;39.72;;;19.60;;
84482;SDS011;74703;51.284;22.590;2024-02-28T07:14:26;31.67;;;19.15;;
84482;SDS011;74703;51.284;22.590;2024-02-28T07:19:26;29.75;;;19.13;;
84482;SDS011;74703;51.284;22.590;2024-02-28T07:24:27;28.50;;;17.60;;
84482;SDS011;74703;51.284;22.590;2024-02-28T07:29:27;27.52;;;16.00;;
84482;SDS011;74703;51.284;22.590;2024-02-28T07:34:28;29.77;;;17.00;;
84482;SDS011;74703;51.284;22.590;2024-02-28T07:39:29;32.08;;;18.58;;
84482;SDS011;74703;51.284;22.590;2024-02-28T07:44:30;30.50;;;17.70;;
84482;SDS011;74703;51.284;22.590;2024-02-28T07:49:33;29.67;;;17.55;;
84482;SDS011;74703;51.284;22.590;2024-02-28T07:54:33;30.42;;;16.00;;
84482;SDS011;74703;51.284;22.590;2024-02-28T07:59:38;31.40;;;15.52;;
84482;SDS011;74703;51.284;22.590;2024-02-28T08:04:39;27.48;;;16.88;;
84482;SDS011;74703;51.284;22.590;2024-02-28T08:09:40;22.52;;;14.25;;
84482;SDS011;74703;51.284;22.590;2024-02-28T08:14:40;31.23;;;16.55;;
84482;SDS011;74703;51.284;22.590;2024-02-28T08:19:41;25.85;;;14.82;;
84482;SDS011;74703;51.284;22.590;2024-02-28T08:24:42;27.48;;;17.50;;
84482;SDS011;74703;51.284;22.590;2024-02-28T08:29:44;23.27;;;14.52;;
84482;SDS011;74703;51.284;22.590;2024-02-28T08:34:46;26.90;;;15.45;;
84482;SDS011;74703;51.284;22.590;2024-02-28T08:39:46;24.35;;;15.35;;
84482;SDS011;74703;51.284;22.590;2024-02-28T08:44:47;24.25;;;16.05;;
84482;SDS011;74703;51.284;22.590;2024-02-28T08:49:48;24.20;;;14.68;;
84482;SDS011;74703;51.284;22.590;2024-02-28T08:54:48;25.52;;;14.75;;
84482;SDS011;74703;51.284;22.590;2024-02-28T08:59:49;24.42;;;14.85;;
84482;SDS011;74703;51.284;22.590;2024-02-28T09:04:50;28.10;;;13.52;;
84482;SDS011;74703;51.284;22.590;2024-02-28T09:09:53;23.52;;;14.15;;
84482;SDS011;74703;51.284;22.590;2024-02-28T09:14:54;20.80;;;13.45;;
84482;SDS011;74703;51.284;22.590;2024-02-28T09:19:57;26.85;;;13.15;;
84482;SDS011;74703;51.284;22.590;2024-02-28T09:25:00;26.13;;;13.18;;
84482;SDS011;74703;51.284;22.590;2024-02-28T09:30:04;24.73;;;14.88;;
84482;SDS011;74703;51.284;22.590;2024-02-28T09:35:05;24.95;;;14.45;;
84482;SDS011;74703;51.284;22.590;2024-02-28T09:40:10;20.85;;;14.55;;
84482;SDS011;74703;51.284;22.590;2024-02-28T09:45:11;23.92;;;13.40;;
84482;SDS011;74703;51.284;22.590;2024-02-28T09:50:12;31.42;;;15.85;;
84482;SDS011;74703;51.284;22.590;2024-02-28T09:55:14;27.83;;;15.02;;
84482;SDS011;74703;51.284;22.590;2024-02-28T10:00:19;24.33;;;13.90;;
84482;SDS011;74703;51.284;22.590;2024-02-28T10:05:20;25.50;;;12.75;;
84482;SDS011;74703;51.284;22.590;2024-02-28T10:10:21;18.75;;;11.25;;
84482;SDS011;74703;51.284;22.590;2024-02-28T10:15:23;28.05;;;12.65;;
84482;SDS011;74703;51.284;22.590;2024-02-28T10:20:26;21.05;;;12.48;;
84482;SDS011;74703;51.284;22.590;2024-02-28T10:25:27;21.70;;;11.52;;
84482;SDS011;74703;51.284;22.590;2024-02-28T10:30:29;18.48;;;11.68;;
84482;SDS011;74703;51.284;22.590;2024-02-28T10:35:29;31.55;;;17.70;;
84482;SDS011;74703;51.284;22.590;2024-02-28T10:40:30;33.40;;;15.75;;
84482;SDS011;74703;51.284;22.590;2024-02-28T10:45:31;40.13;;;18.45;;
84482;SDS011;74703;51.284;22.590;2024-02-28T10:50:32;16.85;;;11.32;;
84482;SDS011;74703;51.284;22.590;2024-02-28T10:55:33;42.25;;;19.83;;
84482;SDS011;74703;51.284;22.590;2024-02-28T11:00:36;34.28;;;14.75;;
84482;SDS011;74703;51.284;22.590;2024-02-28T11:05:39;31.25;;;13.90;;
84482;SDS011;74703;51.284;22.590;2024-02-28T11:10:41;39.30;;;16.65;;
84482;SDS011;74703;51.284;22.590;2024-02-28T11:15:46;20.23;;;11.43;;
84482;SDS011;74703;51.284;22.590;2024-02-28T11:20:48;17.20;;;10.50;;
84482;SDS011;74703;51.284;22.590;2024-02-28T11:25:49;25.33;;;12.70;;
84482;SDS011;74703;51.284;22.590;2024-02-28T11:30:49;22.85;;;12.63;;
84482;SDS011;74703;51.284;22.590;2024-02-28T11:35:56;14.25;;;9.48;;
84482;SDS011;74703;51.284;22.590;2024-02-28T11:40:57;16.15;;;9.20;;
84482;SDS011;74703;51.284;22.590;2024-02-28T11:46:00;17.40;;;9.40;;
84482;SDS011;74703;51.284;22.590;2024-02-28T11:51:01;16.65;;;10.30;;
84482;SDS011;74703;51.284;22.590;2024-02-28T11:56:02;23.20;;;10.95;;
84482;SDS011;74703;51.284;22.590;2024-02-28T12:01:03;15.88;;;8.95;;
84482;SDS011;74703;51.284;22.590;2024-02-28T12:06:05;21.48;;;10.50;;
84482;SDS011;74703;51.284;22.590;2024-02-28T12:11:06;15.23;;;7.90;;
84482;SDS011;74703;51.284;22.590;2024-02-28T12:16:08;10.40;;;6.80;;
84482;SDS011;74703;51.284;22.590;2024-02-28T12:21:09;46.10;;;24.15;;
84482;SDS011;74703;51.284;22.590;2024-02-28T12:26:09;24.35;;;12.23;;
84482;SDS011;74703;51.284;22.590;2024-02-28T12:31:10;16.35;;;9.35;;
84482;SDS011;74703;51.284;22.590;2024-02-28T12:36:12;15.35;;;8.77;;
84482;SDS011;74703;51.284;22.590;2024-02-28T12:41:14;12.38;;;7.95;;
84482;SDS011;74703;51.284;22.590;2024-02-28T12:46:15;17.60;;;9.77;;
84482;SDS011;74703;51.284;22.590;2024-02-28T12:56:37;17.83;;;9.82;;
84482;SDS011;74703;51.284;22.590;2024-02-28T13:01:38;14.43;;;9.30;;
84482;SDS011;74703;51.284;22.590;2024-02-28T13:06:38;15.18;;;8.30;;
84482;SDS011;74703;51.284;22.590;2024-02-28T13:11:42;16.42;;;9.60;;
84482;SDS011;74703;51.284;22.590;2024-02-28T13:16:44;21.13;;;10.23;;
84482;SDS011;74703;51.284;22.590;2024-02-28T13:21:45;16.52;;;9.90;;
84482;SDS011;74703;51.284;22.590;2024-02-28T13:26:45;21.20;;;13.32;;
84482;SDS011;74703;51.284;22.590;2024-02-28T13:31:46;20.55;;;13.20;;
84482;SDS011;74703;51.284;22.590;2024-02-28T13:36:46;22.05;;;12.40;;
84482;SDS011;74703;51.284;22.590;2024-02-28T13:41:47;26.23;;;14.30;;
84482;SDS011;74703;51.284;22.590;2024-02-28T13:46:51;26.15;;;14.75;;
84482;SDS011;74703;51.284;22.590;2024-02-28T13:51:52;26.80;;;14.40;;
84482;SDS011;74703;51.284;22.590;2024-02-28T13:56:53;27.08;;;14.32;;
84482;SDS011;74703;51.284;22.590;2024-02-28T14:01:53;25.80;;;15.13;;
84482;SDS011;74703;51.284;22.590;2024-02-28T14:06:54;73.15;;;36.08;;
84482;SDS011;74703;51.284;22.590;2024-02-28T14:11:54;371.25;;;206.00;;
84482;SDS011;74703;51.284;22.590;2024-02-28T14:16:55;260.60;;;134.75;;
84482;SDS011;74703;51.284;22.590;2024-02-28T14:21:56;549.70;;;305.25;;
84482;SDS011;74703;51.284;22.590;2024-02-28T14:26:56;198.70;;;105.88;;
84482;SDS011;74703;51.284;22.590;2024-02-28T14:31:57;101.68;;;62.67;;
84482;SDS011;74703;51.284;22.590;2024-02-28T14:36:58;183.38;;;84.53;;
84482;SDS011;74703;51.284;22.590;2024-02-28T14:41:58;242.82;;;113.60;;
84482;SDS011;74703;51.284;22.590;2024-02-28T14:46:59;119.07;;;56.35;;
84482;SDS011;74703;51.284;22.590;2024-02-28T14:51:59;46.70;;;23.38;;
84482;SDS011;74703;51.284;22.590;2024-02-28T14:57:00;31.15;;;16.00;;
84482;SDS011;74703;51.284;22.590;2024-02-28T15:02:01;89.63;;;63.45;;
84482;SDS011;74703;51.284;22.590;2024-02-28T15:07:02;83.78;;;51.08;;
84482;SDS011;74703;51.284;22.590;2024-02-28T15:12:02;76.85;;;37.85;;
84482;SDS011;74703;51.284;22.590;2024-02-28T15:17:03;44.95;;;21.67;;
84482;SDS011;74703;51.284;22.590;2024-02-28T15:22:05;294.70;;;131.57;;
84482;SDS011;74703;51.284;22.590;2024-02-28T15:27:07;196.75;;;98.57;;
84482;SDS011;74703;51.284;22.590;2024-02-28T15:32:07;206.07;;;104.35;;
84482;SDS011;74703;51.284;22.590;2024-02-28T15:37:09;294.38;;;139.48;;
84482;SDS011;74703;51.284;22.590;2024-02-28T15:42:10;195.85;;;89.68;;
84482;SDS011;74703;51.284;22.590;2024-02-28T15:47:13;231.80;;;92.97;;
84482;SDS011;74703;51.284;22.590;2024-02-28T15:52:13;125.22;;;52.42;;
84482;SDS011;74703;51.284;22.590;2024-02-28T15:57:14;124.97;;;55.40;;
84482;SDS011;74703;51.284;22.590;2024-02-28T16:02:16;102.88;;;46.53;;
84482;SDS011;74703;51.284;22.590;2024-02-28T16:07:16;67.05;;;33.22;;
84482;SDS011;74703;51.284;22.590;2024-02-28T16:12:17;51.78;;;26.35;;
84482;SDS011;74703;51.284;22.590;2024-02-28T16:17:18;89.05;;;45.50;;
84482;SDS011;74703;51.284;22.590;2024-02-28T16:22:20;165.70;;;74.47;;
84482;SDS011;74703;51.284;22.590;2024-02-28T16:27:21;62.10;;;34.38;;
84482;SDS011;74703;51.284;22.590;2024-02-28T16:32:21;50.30;;;23.58;;
84482;SDS011;74703;51.284;22.590;2024-02-28T16:37:22;49.83;;;27.95;;
84482;SDS011;74703;51.284;22.590;2024-02-28T16:42:25;43.10;;;24.25;;
84482;SDS011;74703;51.284;22.590;2024-02-28T16:47:25;59.42;;;30.45;;
84482;SDS011;74703;51.284;22.590;2024-02-28T16:52:26;107.90;;;52.72;;
84482;SDS011;74703;51.284;22.590;2024-02-28T16:57:27;133.35;;;67.38;;
84482;SDS011;74703;51.284;22.590;2024-02-28T17:02:28;103.95;;;54.58;;
84482;SDS011;74703;51.284;22.590;2024-02-28T17:07:29;92.22;;;55.03;;
84482;SDS011;74703;51.284;22.590;2024-02-28T17:12:30;83.80;;;49.05;;
84482;SDS011;74703;51.284;22.590;2024-02-28T17:17:31;76.57;;;44.50;;
84482;SDS011;74703;51.284;22.590;2024-02-28T17:22:32;77.32;;;40.47;;
84482;SDS011;74703;51.284;22.590;2024-02-28T17:27:33;57.85;;;36.38;;
84482;SDS011;74703;51.284;22.590;2024-02-28T17:32:34;72.70;;;45.63;;
84482;SDS011;74703;51.284;22.590;2024-02-28T17:37:35;82.47;;;48.28;;
84482;SDS011;74703;51.284;22.590;2024-02-28T17:42:36;69.75;;;43.28;;
84482;SDS011;74703;51.284;22.590;2024-02-28T17:47:37;75.47;;;46.35;;
84482;SDS011;74703;51.284;22.590;2024-02-28T17:52:38;65.22;;;38.55;;
84482;SDS011;74703;51.284;22.590;2024-02-28T17:57:39;73.03;;;40.78;;
84482;SDS011;74703;51.284;22.590;2024-02-28T18:02:40;63.47;;;38.63;;
84482;SDS011;74703;51.284;22.590;2024-02-28T18:07:41;68.03;;;39.53;;
84482;SDS011;74703;51.284;22.590;2024-02-28T18:12:42;62.20;;;34.90;;
84482;SDS011;74703;51.284;22.590;2024-02-28T18:17:43;58.95;;;34.67;;
84482;SDS011;74703;51.284;22.590;2024-02-28T18:22:44;59.05;;;33.25;;
84482;SDS011;74703;51.284;22.590;2024-02-28T18:27:47;66.35;;;36.70;;
84482;SDS011;74703;51.284;22.590;2024-02-28T18:32:48;61.15;;;33.42;;
84482;SDS011;74703;51.284;22.590;2024-02-28T18:37:48;60.42;;;35.00;;
84482;SDS011;74703;51.284;22.590;2024-02-28T18:42:49;52.70;;;33.55;;
84482;SDS011;74703;51.284;22.590;2024-02-28T18:47:50;54.88;;;32.25;;
84482;SDS011;74703;51.284;22.590;2024-02-28T18:52:50;63.45;;;32.70;;
84482;SDS011;74703;51.284;22.590;2024-02-28T18:57:51;65.80;;;38.90;;
84482;SDS011;74703;51.284;22.590;2024-02-28T19:02:54;66.70;;;36.63;;
84482;SDS011;74703;51.284;22.590;2024-02-28T19:07:56;69.10;;;40.08;;
84482;SDS011;74703;51.284;22.590;2024-02-28T19:12:58;56.03;;;35.25;;
84482;SDS011;74703;51.284;22.590;2024-02-28T19:17:58;73.45;;;42.25;;
84482;SDS011;74703;51.284;22.590;2024-02-28T19:23:01;53.38;;;29.20;;
84482;SDS011;74703;51.284;22.590;2024-02-28T19:28:08;51.40;;;32.65;;
84482;SDS011;74703;51.284;22.590;2024-02-28T19:33:09;73.40;;;43.38;;
84482;SDS011;74703;51.284;22.590;2024-02-28T19:38:09;64.30;;;37.83;;
84482;SDS011;74703;51.284;22.590;2024-02-28T19:43:10;68.90;;;38.33;;
84482;SDS011;74703;51.284;22.590;2024-02-28T19:48:10;57.40;;;37.15;;
84482;SDS011;74703;51.284;22.590;2024-02-28T19:53:11;65.30;;;41.70;;
84482;SDS011;74703;51.284;22.590;2024-02-28T19:58:12;71.28;;;43.65;;
84482;SDS011;74703;51.284;22.590;2024-02-28T20:03:12;94.50;;;52.03;;
84482;SDS011;74703;51.284;22.590;2024-02-28T20:08:13;61.45;;;38.70;;
84482;SDS011;74703;51.284;22.590;2024-02-28T20:13:14;73.00;;;44.53;;
84482;SDS011;74703;51.284;22.590;2024-02-28T20:18:14;74.47;;;44.65;;
84482;SDS011;74703;51.284;22.590;2024-02-28T20:23:16;115.10;;;66.88;;
84482;SDS011;74703;51.284;22.590;2024-02-28T20:28:17;105.40;;;61.28;;
84482;SDS011;74703;51.284;22.590;2024-02-28T20:33:17;115.28;;;60.78;;
84482;SDS011;74703;51.284;22.590;2024-02-28T20:38:18;104.43;;;57.22;;
84482;SDS011;74703;51.284;22.590;2024-02-28T20:43:23;111.50;;;64.65;;
84482;SDS011;74703;51.284;22.590;2024-02-28T20:48:23;98.07;;;57.95;;
84482;SDS011;74703;51.284;22.590;2024-02-28T20:53:24;93.68;;;53.22;;
84482;SDS011;74703;51.284;22.590;2024-02-28T20:58:25;89.18;;;52.83;;
84482;SDS011;74703;51.284;22.590;2024-02-28T21:03:27;88.88;;;47.05;;
84482;SDS011;74703;51.284;22.590;2024-02-28T21:08:28;69.40;;;45.17;;
84482;SDS011;74703;51.284;22.590;2024-02-28T21:13:28;64.78;;;40.70;;
84482;SDS011;74703;51.284;22.590;2024-02-28T21:18:29;63.05;;;37.33;;
84482;SDS011;74703;51.284;22.590;2024-02-28T21:23:29;59.03;;;33.72;;
84482;SDS011;74703;51.284;22.590;2024-02-28T21:28:30;66.22;;;36.97;;
84482;SDS011;74703;51.284;22.590;2024-02-28T21:33:32;68.47;;;40.50;;
84482;SDS011;74703;51.284;22.590;2024-02-28T21:38:32;67.88;;;38.47;;
84482;SDS011;74703;51.284;22.590;2024-02-28T21:43:35;51.15;;;31.77;;
84482;SDS011;74703;51.284;22.590;2024-02-28T21:48:36;45.22;;;29.30;;
84482;SDS011;74703;51.284;22.590;2024-02-28T21:53:37;44.97;;;29.05;;
84482;SDS011;74703;51.284;22.590;2024-02-28T21:58:38;44.40;;;28.88;;
84482;SDS011;74703;51.284;22.590;2024-02-28T22:03:39;50.05;;;31.15;;
84482;SDS011;74703;51.284;22.590;2024-02-28T22:08:39;48.78;;;30.80;;
84482;SDS011;74703;51.284;22.590;2024-02-28T22:13:40;47.88;;;31.40;;
84482;SDS011;74703;51.284;22.590;2024-02-28T22:18:40;50.25;;;32.10;;
84482;SDS011;74703;51.284;22.590;2024-02-28T22:23:41;59.38;;;34.17;;
84482;SDS011;74703;51.284;22.590;2024-02-28T22:28:43;55.22;;;34.70;;
84482;SDS011;74703;51.284;22.590;2024-02-28T22:33:43;61.05;;;36.05;;
84482;SDS011;74703;51.284;22.590;2024-02-28T22:38:44;64.63;;;35.08;;
84482;SDS011;74703;51.284;22.590;2024-02-28T22:43:45;62.95;;;34.50;;
84482;SDS011;74703;51.284;22.590;2024-02-28T22:48:45;59.33;;;32.17;;
84482;SDS011;74703;51.284;22.590;2024-02-28T22:53:47;66.25;;;35.03;;
84482;SDS011;74703;51.284;22.590;2024-02-28T22:58:48;62.28;;;31.67;;
84482;SDS011;74703;51.284;22.590;2024-02-28T23:03:48;55.20;;;28.98;;
84482;SDS011;74703;51.284;22.590;2024-02-28T23:08:49;64.20;;;30.20;;
84482;SDS011;74703;51.284;22.590;2024-02-28T23:13:50;62.22;;;32.67;;
84482;SDS011;74703;51.284;22.590;2024-02-28T23:18:51;73.53;;;35.10;;
84482;SDS011;74703;51.284;22.590;2024-02-28T23:23:52;63.40;;;30.77;;
84482;SDS011;74703;51.284;22.590;2024-02-28T23:28:52;70.90;;;32.97;;
84482;SDS011;74703;51.284;22.590;2024-02-28T23:33:53;67.70;;;32.58;;
84482;SDS011;74703;51.284;22.590;2024-02-28T23:38:53;75.90;;;31.83;;
84482;SDS011;74703;51.284;22.590;2024-02-28T23:43:54;71.82;;;32.92;;
84482;SDS011;74703;51.284;22.590;2024-02-28T23:48:54;75.68;;;33.50;;
84482;SDS011;74703;51.284;22.590;2024-02-28T23:53:55;76.13;;;35.42;;
84482;SDS011;74703;51.284;22.590;2024-02-28T23:58:56;80.53;;;36.83;;
